Sagerton, Texas
Current Conditions -  °F | °C
As of 8:58 PM on Tuesday 25 Nov 2014 (Local Time) from KDYS Reporting Station
Clear Clear  
Wind Chill: 40°   Ceiling: Unl
Heat Index: 45°   Visibility: 8mi
Dew Point: 23°   Wind: 9mph
Humidity: 42%   Direction: 200°SSW
Pressure: 30.12"   Gusts: NA
Location:  33.036°N, 99.8727°W
Report Text: KDYS 260258Z AUTO 20008KT 8SM CLR 07/M05 A3012 RMK AO2 SLP200 T00731048 58008 $
Loading
Personal Weather Stations






























Interactive Weather Map New forecast layout! Learn more

10-Day Weather Forecast

Advertisements
Track Severe Weather on mobile